sensor_id;sensor_type;location;lat;lon;timestamp;pressure;altitude;pressure_sealevel;temperature;humidity
49759;BME280;35654;46.080;11.118;2023-02-11T00:01:46;101553.50;;;-0.21;53.91
49759;BME280;35654;46.080;11.118;2023-02-11T00:04:12;101551.16;;;-0.24;54.26
49759;BME280;35654;46.080;11.118;2023-02-11T00:06:39;101550.97;;;-0.22;53.75
49759;BME280;35654;46.080;11.118;2023-02-11T00:09:06;101552.38;;;-0.34;54.54
49759;BME280;35654;46.080;11.118;2023-02-11T00:11:33;101554.06;;;-0.49;55.05
49759;BME280;35654;46.080;11.118;2023-02-11T00:14:01;101549.34;;;-0.47;55.33
49759;BME280;35654;46.080;11.118;2023-02-11T00:16:29;101553.06;;;-0.48;54.87
49759;BME280;35654;46.080;11.118;2023-02-11T00:19:01;101547.50;;;-0.55;55.07
49759;BME280;35654;46.080;11.118;2023-02-11T00:21:29;101543.28;;;-0.49;54.87
49759;BME280;35654;46.080;11.118;2023-02-11T00:23:56;101544.47;;;-0.44;54.40
49759;BME280;35654;46.080;11.118;2023-02-11T00:26:30;101551.19;;;-0.40;54.31
49759;BME280;35654;46.080;11.118;2023-02-11T00:28:59;101545.81;;;-0.40;54.19
49759;BME280;35654;46.080;11.118;2023-02-11T00:31:27;101539.59;;;-0.40;54.08
49759;BME280;35654;46.080;11.118;2023-02-11T00:33:54;101539.59;;;-0.40;54.27
49759;BME280;35654;46.080;11.118;2023-02-11T00:36:24;101543.97;;;-0.39;54.47
49759;BME280;35654;46.080;11.118;2023-02-11T00:38:52;101550.34;;;-0.40;55.04
49759;BME280;35654;46.080;11.118;2023-02-11T00:41:20;101546.50;;;-0.46;55.38
49759;BME280;35654;46.080;11.118;2023-02-11T00:43:47;101550.72;;;-0.51;55.86
49759;BME280;35654;46.080;11.118;2023-02-11T00:46:15;101546.84;;;-0.57;55.83
49759;BME280;35654;46.080;11.118;2023-02-11T00:48:42;101550.84;;;-0.53;56.17
49759;BME280;35654;46.080;11.118;2023-02-11T00:51:09;101552.72;;;-0.53;57.50
49759;BME280;35654;46.080;11.118;2023-02-11T00:53:35;101549.00;;;-0.52;57.65
49759;BME280;35654;46.080;11.118;2023-02-11T00:56:03;101557.41;;;-0.55;57.89
49759;BME280;35654;46.080;11.118;2023-02-11T00:58:30;101558.94;;;-0.61;58.14
49759;BME280;35654;46.080;11.118;2023-02-11T01:00:56;101557.44;;;-0.64;58.12
49759;BME280;35654;46.080;11.118;2023-02-11T01:06:27;101557.09;;;-0.61;58.46
49759;BME280;35654;46.080;11.118;2023-02-11T01:08:54;101562.16;;;-0.66;58.07
49759;BME280;35654;46.080;11.118;2023-02-11T01:11:20;101559.97;;;-0.70;58.30
49759;BME280;35654;46.080;11.118;2023-02-11T01:13:48;101564.00;;;-0.74;58.61
49759;BME280;35654;46.080;11.118;2023-02-11T01:16:16;101560.63;;;-0.68;57.67
49759;BME280;35654;46.080;11.118;2023-02-11T01:18:43;101559.78;;;-0.69;58.61
49759;BME280;35654;46.080;11.118;2023-02-11T01:21:23;101545.84;;;-0.72;58.53
49759;BME280;35654;46.080;11.118;2023-02-11T01:23:50;101546.53;;;-0.70;58.75
49759;BME280;35654;46.080;11.118;2023-02-11T01:26:16;101546.88;;;-0.73;59.12
49759;BME280;35654;46.080;11.118;2023-02-11T01:28:43;101544.50;;;-0.76;58.62
49759;BME280;35654;46.080;11.118;2023-02-11T01:31:10;101544.31;;;-0.83;58.83
49759;BME280;35654;46.080;11.118;2023-02-11T01:33:37;101547.34;;;-0.86;58.19
49759;BME280;35654;46.080;11.118;2023-02-11T01:36:04;101544.66;;;-0.86;57.68
49759;BME280;35654;46.080;11.118;2023-02-11T01:38:32;101535.59;;;-0.85;57.29
49759;BME280;35654;46.080;11.118;2023-02-11T01:41:03;101537.44;;;-0.85;57.61
49759;BME280;35654;46.080;11.118;2023-02-11T01:43:37;101531.41;;;-0.95;58.00
49759;BME280;35654;46.080;11.118;2023-02-11T01:48:45;101521.31;;;-1.01;58.12
49759;BME280;35654;46.080;11.118;2023-02-11T01:51:31;101522.31;;;-0.94;57.60
49759;BME280;35654;46.080;11.118;2023-02-11T01:54:00;101519.47;;;-0.93;57.28
49759;BME280;35654;46.080;11.118;2023-02-11T01:56:48;101513.91;;;-0.91;57.70
49759;BME280;35654;46.080;11.118;2023-02-11T01:59:51;101514.25;;;-0.94;57.46
49759;BME280;35654;46.080;11.118;2023-02-11T02:02:43;101511.88;;;-0.97;57.22
49759;BME280;35654;46.080;11.118;2023-02-11T02:10:46;101510.56;;;-1.01;57.80
49759;BME280;35654;46.080;11.118;2023-02-11T02:13:14;101492.91;;;-1.04;57.57
49759;BME280;35654;46.080;11.118;2023-02-11T02:16:06;101498.63;;;-1.07;57.26
49759;BME280;35654;46.080;11.118;2023-02-11T02:18:55;101490.72;;;-1.08;57.38
49759;BME280;35654;46.080;11.118;2023-02-11T02:34:05;101491.69;;;-1.42;59.32
49759;BME280;35654;46.080;11.118;2023-02-11T02:36:44;101482.25;;;-1.62;59.69
49759;BME280;35654;46.080;11.118;2023-02-11T02:39:33;101470.03;;;-1.48;59.59
49759;BME280;35654;46.080;11.118;2023-02-11T02:42:01;101472.56;;;-1.39;59.13
49759;BME280;35654;46.080;11.118;2023-02-11T02:44:28;101470.91;;;-1.32;58.58
49759;BME280;35654;46.080;11.118;2023-02-11T02:46:55;101467.19;;;-1.31;58.40
49759;BME280;35654;46.080;11.118;2023-02-11T02:49:21;101468.22;;;-1.32;58.42
49759;BME280;35654;46.080;11.118;2023-02-11T02:52:33;101467.50;;;-1.34;58.45
49759;BME280;35654;46.080;11.118;2023-02-11T02:55:23;101468.88;;;-1.38;59.21
49759;BME280;35654;46.080;11.118;2023-02-11T02:58:16;101468.53;;;-1.43;59.42
49759;BME280;35654;46.080;11.118;2023-02-11T03:03:57;101470.53;;;-1.37;59.09
49759;BME280;35654;46.080;11.118;2023-02-11T03:09:23;101470.84;;;-1.48;59.04
49759;BME280;35654;46.080;11.118;2023-02-11T03:11:53;101477.41;;;-1.58;59.17
49759;BME280;35654;46.080;11.118;2023-02-11T03:14:21;101466.81;;;-1.68;60.21
49759;BME280;35654;46.080;11.118;2023-02-11T03:16:51;101473.00;;;-1.67;60.04
49759;BME280;35654;46.080;11.118;2023-02-11T03:19:25;101473.06;;;-1.59;60.19
49759;BME280;35654;46.080;11.118;2023-02-11T03:21:55;101476.22;;;-1.56;60.09
49759;BME280;35654;46.080;11.118;2023-02-11T03:24:31;101465.16;;;-1.53;59.85
49759;BME280;35654;46.080;11.118;2023-02-11T03:27:33;101467.84;;;-1.53;59.61
49759;BME280;35654;46.080;11.118;2023-02-11T03:30:16;101462.47;;;-1.53;59.55
49759;BME280;35654;46.080;11.118;2023-02-11T03:33:54;101458.25;;;-1.55;60.17
49759;BME280;35654;46.080;11.118;2023-02-11T03:36:09;101465.16;;;-1.53;60.20
49759;BME280;35654;46.080;11.118;2023-02-11T03:38:46;101453.06;;;-1.65;60.13
49759;BME280;35654;46.080;11.118;2023-02-11T03:41:16;101456.22;;;-1.78;60.67
49759;BME280;35654;46.080;11.118;2023-02-11T03:43:48;101455.53;;;-1.80;60.87
49759;BME280;35654;46.080;11.118;2023-02-11T03:46:18;101443.63;;;-1.77;60.92
49759;BME280;35654;46.080;11.118;2023-02-11T03:48:55;101451.34;;;-1.74;60.84
49759;BME280;35654;46.080;11.118;2023-02-11T03:51:24;101448.16;;;-1.69;60.80
49759;BME280;35654;46.080;11.118;2023-02-11T03:53:54;101451.53;;;-1.67;60.42
49759;BME280;35654;46.080;11.118;2023-02-11T03:56:25;101446.34;;;-1.61;59.95
49759;BME280;35654;46.080;11.118;2023-02-11T03:58:52;101448.69;;;-1.58;59.89
49759;BME280;35654;46.080;11.118;2023-02-11T04:01:19;101441.31;;;-1.56;59.79
49759;BME280;35654;46.080;11.118;2023-02-11T04:03:46;101443.84;;;-1.54;59.75
49759;BME280;35654;46.080;11.118;2023-02-11T04:06:13;101448.88;;;-1.59;59.46
49759;BME280;35654;46.080;11.118;2023-02-11T04:08:39;101441.81;;;-1.68;59.89
49759;BME280;35654;46.080;11.118;2023-02-11T04:11:06;101441.94;;;-1.70;60.12
49759;BME280;35654;46.080;11.118;2023-02-11T04:13:33;101446.16;;;-1.67;59.98
49759;BME280;35654;46.080;11.118;2023-02-11T04:15:59;101446.16;;;-1.67;60.11
49759;BME280;35654;46.080;11.118;2023-02-11T04:18:26;101440.63;;;-1.66;60.00
49759;BME280;35654;46.080;11.118;2023-02-11T04:20:53;101435.06;;;-1.64;60.07
49759;BME280;35654;46.080;11.118;2023-02-11T04:23:20;101437.75;;;-1.64;59.99
49759;BME280;35654;46.080;11.118;2023-02-11T04:25:48;101441.63;;;-1.67;59.86
49759;BME280;35654;46.080;11.118;2023-02-11T04:28:14;101435.75;;;-1.70;60.29
49759;BME280;35654;46.080;11.118;2023-02-11T04:30:41;101439.25;;;-1.70;59.95
49759;BME280;35654;46.080;11.118;2023-02-11T04:33:08;101442.13;;;-1.71;60.02
49759;BME280;35654;46.080;11.118;2023-02-11T04:35:34;101434.72;;;-1.78;60.06
49759;BME280;35654;46.080;11.118;2023-02-11T04:38:01;101437.06;;;-1.83;60.09
49759;BME280;35654;46.080;11.118;2023-02-11T04:40:27;101429.16;;;-1.84;60.35
49759;BME280;35654;46.080;11.118;2023-02-11T04:42:55;101436.88;;;-1.89;60.46
49759;BME280;35654;46.080;11.118;2023-02-11T04:45:22;101433.69;;;-1.93;60.88
49759;BME280;35654;46.080;11.118;2023-02-11T04:47:48;101426.47;;;-1.92;60.65
49759;BME280;35654;46.080;11.118;2023-02-11T04:50:15;101431.16;;;-1.94;60.49
49759;BME280;35654;46.080;11.118;2023-02-11T04:52:46;101423.78;;;-1.92;60.56
49759;BME280;35654;46.080;11.118;2023-02-11T04:55:13;101426.47;;;-1.92;60.46
49759;BME280;35654;46.080;11.118;2023-02-11T04:57:39;101417.75;;;-1.94;60.87
49759;BME280;35654;46.080;11.118;2023-02-11T05:00:07;101422.25;;;-1.95;60.78
49759;BME280;35654;46.080;11.118;2023-02-11T05:02:35;101422.59;;;-1.98;61.43
49759;BME280;35654;46.080;11.118;2023-02-11T05:05:02;101429.44;;;-2.11;61.84
49759;BME280;35654;46.080;11.118;2023-02-11T05:07:28;101428.25;;;-2.09;61.93
49759;BME280;35654;46.080;11.118;2023-02-11T05:09:53;101423.25;;;-2.04;61.74
49759;BME280;35654;46.080;11.118;2023-02-11T05:12:18;101424.94;;;-2.03;61.75
49759;BME280;35654;46.080;11.118;2023-02-11T05:14:44;101426.78;;;-2.03;61.51
49759;BME280;35654;46.080;11.118;2023-02-11T05:17:10;101436.16;;;-2.07;62.46
49759;BME280;35654;46.080;11.118;2023-02-11T05:19:37;101425.44;;;-2.07;62.44
49759;BME280;35654;46.080;11.118;2023-02-11T05:22:05;101434.28;;;-2.15;62.91
49759;BME280;35654;46.080;11.118;2023-02-11T05:24:31;101432.13;;;-2.11;62.71
49759;BME280;35654;46.080;11.118;2023-02-11T05:26:56;101419.53;;;-2.11;62.64
49759;BME280;35654;46.080;11.118;2023-02-11T05:29:22;101425.41;;;-2.15;62.48
49759;BME280;35654;46.080;11.118;2023-02-11T05:31:48;101429.59;;;-2.21;63.32
49759;BME280;35654;46.080;11.118;2023-02-11T05:34:15;101423.38;;;-2.21;63.52
49759;BME280;35654;46.080;11.118;2023-02-11T05:36:42;101424.03;;;-2.19;63.09
49759;BME280;35654;46.080;11.118;2023-02-11T05:39:07;101413.97;;;-2.17;63.24
49759;BME280;35654;46.080;11.118;2023-02-11T05:41:34;101419.34;;;-2.17;63.42
49759;BME280;35654;46.080;11.118;2023-02-11T05:44:01;101420.72;;;-2.13;63.37
49759;BME280;35654;46.080;11.118;2023-02-11T05:46:27;101417.38;;;-2.15;63.63
49759;BME280;35654;46.080;11.118;2023-02-11T05:48:54;101409.31;;;-2.15;63.13
49759;BME280;35654;46.080;11.118;2023-02-11T05:51:22;101411.16;;;-2.16;62.92
49759;BME280;35654;46.080;11.118;2023-02-11T05:53:52;101400.56;;;-2.17;63.23
49759;BME280;35654;46.080;11.118;2023-02-11T05:56:18;101407.63;;;-2.16;63.00
49759;BME280;35654;46.080;11.118;2023-02-11T05:58:45;101403.94;;;-2.15;63.17
49759;BME280;35654;46.080;11.118;2023-02-11T06:01:12;101409.31;;;-2.15;63.41
49759;BME280;35654;46.080;11.118;2023-02-11T06:03:39;101417.50;;;-2.17;63.49
49759;BME280;35654;46.080;11.118;2023-02-11T06:06:14;101431.78;;;-2.16;63.76
49759;BME280;35654;46.080;11.118;2023-02-11T06:08:41;101421.56;;;-2.13;63.30
49759;BME280;35654;46.080;11.118;2023-02-11T06:11:08;101433.81;;;-2.10;63.08
49759;BME280;35654;46.080;11.118;2023-02-11T06:13:35;101427.78;;;-2.12;62.96
49759;BME280;35654;46.080;11.118;2023-02-11T06:16:02;101428.56;;;-2.20;63.10
49759;BME280;35654;46.080;11.118;2023-02-11T06:18:28;101422.19;;;-2.27;63.24
49759;BME280;35654;46.080;11.118;2023-02-11T06:20:55;101425.38;;;-2.23;63.00
49759;BME280;35654;46.080;11.118;2023-02-11T06:23:22;101426.72;;;-2.19;62.88
49759;BME280;35654;46.080;11.118;2023-02-11T06:25:49;101420.19;;;-2.17;63.22
49759;BME280;35654;46.080;11.118;2023-02-11T06:28:15;101415.31;;;-2.21;63.34
49759;BME280;35654;46.080;11.118;2023-02-11T06:30:42;101415.84;;;-2.18;63.48
49759;BME280;35654;46.080;11.118;2023-02-11T06:33:08;101415.66;;;-2.16;63.19
49759;BME280;35654;46.080;11.118;2023-02-11T06:35:37;101413.34;;;-2.11;63.38
49759;BME280;35654;46.080;11.118;2023-02-11T06:38:04;101409.81;;;-2.04;63.18
49759;BME280;35654;46.080;11.118;2023-02-11T06:40:31;101413.03;;;-2.00;62.96
49759;BME280;35654;46.080;11.118;2023-02-11T06:42:57;101412.56;;;-1.96;62.57
49759;BME280;35654;46.080;11.118;2023-02-11T06:45:23;101412.22;;;-1.93;61.86
49759;BME280;35654;46.080;11.118;2023-02-11T06:47:50;101419.25;;;-1.92;61.08
49759;BME280;35654;46.080;11.118;2023-02-11T06:50:17;101421.94;;;-1.92;60.81
49759;BME280;35654;46.080;11.118;2023-02-11T06:52:43;101423.63;;;-1.91;60.45
49759;BME280;35654;46.080;11.118;2023-02-11T06:55:10;101429.00;;;-1.91;60.50
49759;BME280;35654;46.080;11.118;2023-02-11T06:57:36;101426.84;;;-1.87;60.37
49759;BME280;35654;46.080;11.118;2023-02-11T07:00:04;101428.69;;;-1.80;60.28
49759;BME280;35654;46.080;11.118;2023-02-11T07:02:31;101433.72;;;-1.77;59.75
49759;BME280;35654;46.080;11.118;2023-02-11T07:04:57;101429.22;;;-1.76;59.46
49759;BME280;35654;46.080;11.118;2023-02-11T07:07:24;101440.75;;;-1.76;59.46
49759;BME280;35654;46.080;11.118;2023-02-11T07:09:50;101431.38;;;-1.80;60.28
49759;BME280;35654;46.080;11.118;2023-02-11T07:12:16;101441.59;;;-1.83;60.54
49759;BME280;35654;46.080;11.118;2023-02-11T07:14:43;101441.59;;;-1.75;60.08
49759;BME280;35654;46.080;11.118;2023-02-11T07:17:08;101433.75;;;-1.68;59.39
49759;BME280;35654;46.080;11.118;2023-02-11T07:19:33;101448.03;;;-1.60;59.11
49759;BME280;35654;46.080;11.118;2023-02-11T07:22:00;101445.34;;;-1.60;58.99
49759;BME280;35654;46.080;11.118;2023-02-11T07:24:25;101436.63;;;-1.54;59.13
49759;BME280;35654;46.080;11.118;2023-02-11T07:26:52;101434.25;;;-1.65;59.59
49759;BME280;35654;46.080;11.118;2023-02-11T07:29:17;101438.94;;;-1.67;60.16
49759;BME280;35654;46.080;11.118;2023-02-11T07:31:43;101442.31;;;-1.65;59.67
49759;BME280;35654;46.080;11.118;2023-02-11T07:34:09;101443.66;;;-1.61;59.55
49759;BME280;35654;46.080;11.118;2023-02-11T07:36:36;101436.91;;;-1.73;59.81
49759;BME280;35654;46.080;11.118;2023-02-11T07:39:02;101434.94;;;-1.63;60.40
49759;BME280;35654;46.080;11.118;2023-02-11T07:41:27;101435.94;;;-1.48;60.06
49759;BME280;35654;46.080;11.118;2023-02-11T07:43:53;101432.59;;;-1.42;60.40
49759;BME280;35654;46.080;11.118;2023-02-11T07:46:23;101433.28;;;-1.24;58.60
49759;BME280;35654;46.080;11.118;2023-02-11T07:48:51;101436.28;;;-1.27;58.68
49759;BME280;35654;46.080;11.118;2023-02-11T07:51:21;101431.44;;;-1.15;58.65
49759;BME280;35654;46.080;11.118;2023-02-11T07:53:48;101428.22;;;-1.02;58.17
49759;BME280;35654;46.080;11.118;2023-02-11T07:56:15;101430.72;;;-0.85;57.38
49759;BME280;35654;46.080;11.118;2023-02-11T07:58:43;101426.19;;;-0.84;56.92
49759;BME280;35654;46.080;11.118;2023-02-11T08:01:16;101433.88;;;-0.73;56.96
49759;BME280;35654;46.080;11.118;2023-02-11T08:03:43;101434.50;;;-0.55;56.01
49759;BME280;35654;46.080;11.118;2023-02-11T08:06:17;101424.19;;;-0.43;55.84
49759;BME280;35654;46.080;11.118;2023-02-11T08:08:45;101417.91;;;-0.20;55.71
49759;BME280;35654;46.080;11.118;2023-02-11T08:11:20;101412.06;;;-0.01;54.52
49759;BME280;35654;46.080;11.118;2023-02-11T08:13:47;101416.72;;;0.14;53.10
49759;BME280;35654;46.080;11.118;2023-02-11T08:16:20;101409.81;;;0.34;51.10
49759;BME280;35654;46.080;11.118;2023-02-11T08:18:47;101413.19;;;0.58;50.51
49759;BME280;35654;46.080;11.118;2023-02-11T08:21:14;101415.41;;;0.78;48.97
49759;BME280;35654;46.080;11.118;2023-02-11T08:23:42;101412.25;;;0.89;48.13
49759;BME280;35654;46.080;11.118;2023-02-11T08:26:20;101413.09;;;1.04;47.49
49759;BME280;35654;46.080;11.118;2023-02-11T08:28:48;101419.25;;;1.12;47.07
49759;BME280;35654;46.080;11.118;2023-02-11T08:31:17;101416.47;;;1.21;47.35
49759;BME280;35654;46.080;11.118;2023-02-11T08:33:43;101423.31;;;1.31;46.91
49759;BME280;35654;46.080;11.118;2023-02-11T08:36:21;101424.22;;;1.38;46.87
49759;BME280;35654;46.080;11.118;2023-02-11T08:38:47;101414.09;;;1.55;47.12
49759;BME280;35654;46.080;11.118;2023-02-11T08:41:14;101414.16;;;1.76;46.64
49759;BME280;35654;46.080;11.118;2023-02-11T08:43:40;101416.47;;;1.94;45.78
49759;BME280;35654;46.080;11.118;2023-02-11T08:46:11;101411.28;;;2.13;44.60
49759;BME280;35654;46.080;11.118;2023-02-11T08:48:36;101407.09;;;2.25;44.53
49759;BME280;35654;46.080;11.118;2023-02-11T08:51:07;101409.16;;;2.45;44.34
49759;BME280;35654;46.080;11.118;2023-02-11T08:53:33;101402.06;;;2.65;43.99
49759;BME280;35654;46.080;11.118;2023-02-11T08:56:00;101388.41;;;2.73;43.36
49759;BME280;35654;46.080;11.118;2023-02-11T08:58:26;101396.00;;;3.12;43.18
49759;BME280;35654;46.080;11.118;2023-02-11T09:00:53;101401.00;;;3.42;42.37
49759;BME280;35654;46.080;11.118;2023-02-11T09:03:20;101397.91;;;3.86;41.67
49759;BME280;35654;46.080;11.118;2023-02-11T09:05:48;101400.81;;;3.85;41.66
49759;BME280;35654;46.080;11.118;2023-02-11T09:08:16;101390.94;;;4.18;40.88
49759;BME280;35654;46.080;11.118;2023-02-11T09:10:41;101390.13;;;4.24;40.68
49759;BME280;35654;46.080;11.118;2023-02-11T09:13:07;101392.19;;;4.22;39.64
49759;BME280;35654;46.080;11.118;2023-02-11T09:15:34;101397.88;;;4.40;39.54
49759;BME280;35654;46.080;11.118;2023-02-11T09:18:00;101393.00;;;4.09;39.72
49759;BME280;35654;46.080;11.118;2023-02-11T09:20:26;101402.22;;;4.28;39.78
49759;BME280;35654;46.080;11.118;2023-02-11T09:22:53;101394.72;;;4.37;39.43
49759;BME280;35654;46.080;11.118;2023-02-11T09:25:18;101398.00;;;4.19;40.10
49759;BME280;35654;46.080;11.118;2023-02-11T09:27:45;101401.22;;;4.55;39.26
49759;BME280;35654;46.080;11.118;2023-02-11T09:30:11;101396.44;;;4.84;39.16
49759;BME280;35654;46.080;11.118;2023-02-11T09:32:36;101391.22;;;4.76;38.48
49759;BME280;35654;46.080;11.118;2023-02-11T09:35:02;101387.69;;;5.08;38.31
49759;BME280;35654;46.080;11.118;2023-02-11T09:37:27;101384.31;;;5.39;37.19
49759;BME280;35654;46.080;11.118;2023-02-11T09:39:53;101382.59;;;5.57;36.90
49759;BME280;35654;46.080;11.118;2023-02-11T09:42:42;101379.59;;;5.85;36.59
49759;BME280;35654;46.080;11.118;2023-02-11T09:45:23;101387.34;;;5.75;35.65
49759;BME280;35654;46.080;11.118;2023-02-11T09:47:59;101396.31;;;5.75;35.47
49759;BME280;35654;46.080;11.118;2023-02-11T09:50:36;101383.44;;;5.45;36.08
49759;BME280;35654;46.080;11.118;2023-02-11T09:55:38;101377.16;;;5.64;34.83
49759;BME280;35654;46.080;11.118;2023-02-11T10:06:48;101370.81;;;5.76;35.23
49759;BME280;35654;46.080;11.118;2023-02-11T10:09:55;101367.22;;;6.33;34.20
49759;BME280;35654;46.080;11.118;2023-02-11T10:15:33;101360.13;;;7.49;32.39
49759;BME280;35654;46.080;11.118;2023-02-11T10:21:09;101346.09;;;8.48;31.13
49759;BME280;35654;46.080;11.118;2023-02-11T10:23:42;101347.00;;;8.95;30.07
49759;BME280;35654;46.080;11.118;2023-02-11T10:26:15;101350.81;;;9.92;28.85
49759;BME280;35654;46.080;11.118;2023-02-11T10:28:44;101339.47;;;10.00;28.69
49759;BME280;35654;46.080;11.118;2023-02-11T10:31:15;101325.53;;;9.73;27.75
49759;BME280;35654;46.080;11.118;2023-02-11T10:33:46;101323.09;;;8.91;29.11
49759;BME280;35654;46.080;11.118;2023-02-11T10:36:17;101323.91;;;9.49;28.90
49759;BME280;35654;46.080;11.118;2023-02-11T10:38:43;101313.25;;;9.87;28.18
49759;BME280;35654;46.080;11.118;2023-02-11T10:41:13;101315.09;;;9.99;27.64
49759;BME280;35654;46.080;11.118;2023-02-11T10:43:41;101320.16;;;9.15;28.24
49759;BME280;35654;46.080;11.118;2023-02-11T10:46:14;101307.66;;;8.73;29.04
49759;BME280;35654;46.080;11.118;2023-02-11T10:48:45;101310.63;;;8.71;28.87
49759;BME280;35654;46.080;11.118;2023-02-11T10:51:27;101298.84;;;8.48;29.82
49759;BME280;35654;46.080;11.118;2023-02-11T10:56:37;101292.38;;;8.01;30.48
49759;BME280;35654;46.080;11.118;2023-02-11T10:59:13;101289.69;;;8.42;30.22
49759;BME280;35654;46.080;11.118;2023-02-11T11:01:44;101287.72;;;7.72;30.70
49759;BME280;35654;46.080;11.118;2023-02-11T11:06:55;101274.22;;;7.95;30.17
49759;BME280;35654;46.080;11.118;2023-02-11T11:09:43;101264.13;;;7.95;30.08
49759;BME280;35654;46.080;11.118;2023-02-11T11:12:47;101259.28;;;7.49;31.03
49759;BME280;35654;46.080;11.118;2023-02-11T11:17:44;101258.56;;;7.06;31.42
49759;BME280;35654;46.080;11.118;2023-02-11T11:20:14;101254.50;;;7.63;31.14
49759;BME280;35654;46.080;11.118;2023-02-11T11:22:41;101246.50;;;8.86;29.80
49759;BME280;35654;46.080;11.118;2023-02-11T11:25:27;101245.78;;;9.53;28.70
49759;BME280;35654;46.080;11.118;2023-02-11T11:27:56;101251.13;;;9.08;29.15
49759;BME280;35654;46.080;11.118;2023-02-11T11:30:26;101236.13;;;9.62;28.20
49759;BME280;35654;46.080;11.118;2023-02-11T11:32:52;101235.66;;;9.65;28.04
49759;BME280;35654;46.080;11.118;2023-02-11T11:35:29;101227.88;;;8.59;29.27
49759;BME280;35654;46.080;11.118;2023-02-11T11:38:00;101225.47;;;7.69;30.98
49759;BME280;35654;46.080;11.118;2023-02-11T11:40:29;101219.69;;;8.06;30.72
49759;BME280;35654;46.080;11.118;2023-02-11T11:43:30;101216.84;;;9.41;28.76
49759;BME280;35654;46.080;11.118;2023-02-11T11:45:58;101206.63;;;11.14;26.17
49759;BME280;35654;46.080;11.118;2023-02-11T11:48:49;101196.94;;;11.06;25.80
49759;BME280;35654;46.080;11.118;2023-02-11T11:51:16;101196.38;;;11.96;25.05
49759;BME280;35654;46.080;11.118;2023-02-11T11:53:54;101201.06;;;10.16;26.10
49759;BME280;35654;46.080;11.118;2023-02-11T11:56:27;101196.03;;;9.96;27.01
49759;BME280;35654;46.080;11.118;2023-02-11T11:58:54;101183.81;;;11.74;25.05
49759;BME280;35654;46.080;11.118;2023-02-11T12:06:48;101164.78;;;18.51;17.60
49759;BME280;35654;46.080;11.118;2023-02-11T12:09:33;101152.38;;;19.85;16.44
49759;BME280;35654;46.080;11.118;2023-02-11T12:15:02;101158.00;;;19.16;16.32
49759;BME280;35654;46.080;11.118;2023-02-11T12:17:46;101151.63;;;20.15;15.68
49759;BME280;35654;46.080;11.118;2023-02-11T12:20:26;101156.44;;;21.46;15.20
49759;BME280;35654;46.080;11.118;2023-02-11T12:25:53;101136.78;;;21.03;15.36
49759;BME280;35654;46.080;11.118;2023-02-11T12:36:10;101118.13;;;20.20;15.79
49759;BME280;35654;46.080;11.118;2023-02-11T12:39:15;101111.41;;;21.95;14.77
49759;BME280;35654;46.080;11.118;2023-02-11T12:47:13;101091.66;;;21.23;15.16
49759;BME280;35654;46.080;11.118;2023-02-11T12:50:03;101078.94;;;22.63;13.86
49759;BME280;35654;46.080;11.118;2023-02-11T12:52:46;101075.75;;;22.35;13.79
49759;BME280;35654;46.080;11.118;2023-02-11T12:55:25;101073.16;;;22.77;13.61
49759;BME280;35654;46.080;11.118;2023-02-11T12:57:53;101071.03;;;21.50;14.31
49759;BME280;35654;46.080;11.118;2023-02-11T13:00:37;101060.25;;;22.55;13.86
49759;BME280;35654;46.080;11.118;2023-02-11T13:08:29;101048.41;;;21.34;13.99
49759;BME280;35654;46.080;11.118;2023-02-11T13:11:12;101049.16;;;19.28;15.35
49759;BME280;35654;46.080;11.118;2023-02-11T13:13:51;101047.25;;;18.74;16.02
49759;BME280;35654;46.080;11.118;2023-02-11T13:16:41;101035.63;;;17.11;17.13
49759;BME280;35654;46.080;11.118;2023-02-11T13:24:35;101024.22;;;18.74;16.03
49759;BME280;35654;46.080;11.118;2023-02-11T13:35:40;101013.47;;;20.63;14.85
49759;BME280;35654;46.080;11.118;2023-02-11T13:38:22;101006.88;;;22.10;13.56
49759;BME280;35654;46.080;11.118;2023-02-11T13:41:10;101003.56;;;19.29;15.18
49759;BME280;35654;46.080;11.118;2023-02-11T13:43:39;100997.84;;;19.61;15.32
49759;BME280;35654;46.080;11.118;2023-02-11T13:46:14;100999.25;;;19.37;15.49
49759;BME280;35654;46.080;11.118;2023-02-11T13:48:44;100982.69;;;18.14;16.38
49759;BME280;35654;46.080;11.118;2023-02-11T13:51:14;100986.91;;;18.93;16.06
49759;BME280;35654;46.080;11.118;2023-02-11T13:53:53;100987.59;;;19.93;15.25
49759;BME280;35654;46.080;11.118;2023-02-11T13:58:59;100987.34;;;19.81;14.86
49759;BME280;35654;46.080;11.118;2023-02-11T14:04:23;100977.28;;;22.26;13.28
49759;BME280;35654;46.080;11.118;2023-02-11T14:13:30;100960.53;;;20.38;14.54
49759;BME280;35654;46.080;11.118;2023-02-11T14:16:13;100969.50;;;19.01;15.22
49759;BME280;35654;46.080;11.118;2023-02-11T14:21:22;100961.63;;;18.27;15.78
49759;BME280;35654;46.080;11.118;2023-02-11T14:31:33;100950.22;;;21.46;13.64
49759;BME280;35654;46.080;11.118;2023-02-11T14:41:38;100943.22;;;19.21;15.18
49759;BME280;35654;46.080;11.118;2023-02-11T14:44:14;100933.44;;;20.77;14.08
49759;BME280;35654;46.080;11.118;2023-02-11T14:46:45;100929.38;;;21.01;13.80
49759;BME280;35654;46.080;11.118;2023-02-11T14:49:26;100927.69;;;21.94;13.44
49759;BME280;35654;46.080;11.118;2023-02-11T14:51:55;100919.50;;;22.85;12.50
49759;BME280;35654;46.080;11.118;2023-02-11T14:54:25;100919.94;;;23.70;12.19
49759;BME280;35654;46.080;11.118;2023-02-11T14:57:13;100915.13;;;22.76;12.53
49759;BME280;35654;46.080;11.118;2023-02-11T15:00:00;100926.41;;;20.71;13.88
49759;BME280;35654;46.080;11.118;2023-02-11T15:02:37;100922.63;;;18.37;15.26
49759;BME280;35654;46.080;11.118;2023-02-11T15:05:24;100923.31;;;16.67;16.54
49759;BME280;35654;46.080;11.118;2023-02-11T15:07:57;100919.97;;;15.47;17.46
49759;BME280;35654;46.080;11.118;2023-02-11T15:10:32;100923.75;;;14.14;19.24
49759;BME280;35654;46.080;11.118;2023-02-11T15:13:01;100919.44;;;12.82;20.91